sensor_id;sensor_type;location;lat;lon;timestamp;P1;durP1;ratioP1;P2;durP2;ratioP2
52574;SDS011;38468;48.114;-1.684;2023-04-24T00:01:08;4.90;;;3.63;;
52574;SDS011;38468;48.114;-1.684;2023-04-24T00:03:09;4.53;;;2.55;;
52574;SDS011;38468;48.114;-1.684;2023-04-24T00:05:09;4.72;;;2.83;;
52574;SDS011;38468;48.114;-1.684;2023-04-24T00:07:10;4.70;;;2.80;;
52574;SDS011;38468;48.114;-1.684;2023-04-24T00:09:12;11.43;;;3.25;;
52574;SDS011;38468;48.114;-1.684;2023-04-24T00:11:13;6.78;;;3.25;;
52574;SDS011;38468;48.114;-1.684;2023-04-24T00:13:14;4.65;;;3.40;;
52574;SDS011;38468;48.114;-1.684;2023-04-24T00:15:14;6.20;;;3.28;;
52574;SDS011;38468;48.114;-1.684;2023-04-24T00:17:15;5.72;;;3.13;;
52574;SDS011;38468;48.114;-1.684;2023-04-24T00:19:19;5.57;;;2.75;;
52574;SDS011;38468;48.114;-1.684;2023-04-24T00:21:21;9.40;;;3.77;;
52574;SDS011;38468;48.114;-1.684;2023-04-24T00:23:25;6.30;;;3.08;;
52574;SDS011;38468;48.114;-1.684;2023-04-24T00:25:26;6.30;;;3.28;;
52574;SDS011;38468;48.114;-1.684;2023-04-24T00:27:26;7.43;;;3.45;;
52574;SDS011;38468;48.114;-1.684;2023-04-24T00:29:27;4.55;;;3.15;;
52574;SDS011;38468;48.114;-1.684;2023-04-24T00:31:28;4.10;;;3.15;;
52574;SDS011;38468;48.114;-1.684;2023-04-24T00:33:29;5.88;;;3.38;;
52574;SDS011;38468;48.114;-1.684;2023-04-24T00:35:29;6.25;;;3.50;;
52574;SDS011;38468;48.114;-1.684;2023-04-24T00:37:30;6.60;;;3.33;;
52574;SDS011;38468;48.114;-1.684;2023-04-24T00:39:31;7.53;;;3.22;;
52574;SDS011;38468;48.114;-1.684;2023-04-24T00:41:32;9.23;;;4.38;;
52574;SDS011;38468;48.114;-1.684;2023-04-24T00:43:32;6.65;;;3.65;;
52574;SDS011;38468;48.114;-1.684;2023-04-24T00:45:33;5.25;;;3.47;;
52574;SDS011;38468;48.114;-1.684;2023-04-24T00:47:34;4.30;;;3.22;;
52574;SDS011;38468;48.114;-1.684;2023-04-24T00:49:34;6.40;;;3.20;;
52574;SDS011;38468;48.114;-1.684;2023-04-24T00:51:35;9.27;;;3.88;;
52574;SDS011;38468;48.114;-1.684;2023-04-24T00:53:36;12.75;;;4.05;;
52574;SDS011;38468;48.114;-1.684;2023-04-24T00:55:37;8.82;;;3.35;;
52574;SDS011;38468;48.114;-1.684;2023-04-24T00:57:38;4.93;;;3.08;;
52574;SDS011;38468;48.114;-1.684;2023-04-24T00:59:39;5.22;;;2.95;;
52574;SDS011;38468;48.114;-1.684;2023-04-24T01:01:41;5.25;;;4.45;;
52574;SDS011;38468;48.114;-1.684;2023-04-24T01:03:42;6.53;;;3.53;;
52574;SDS011;38468;48.114;-1.684;2023-04-24T01:05:42;4.50;;;3.35;;
52574;SDS011;38468;48.114;-1.684;2023-04-24T01:07:44;5.90;;;2.83;;
52574;SDS011;38468;48.114;-1.684;2023-04-24T01:11:49;8.73;;;3.58;;
52574;SDS011;38468;48.114;-1.684;2023-04-24T01:13:50;11.70;;;4.53;;
52574;SDS011;38468;48.114;-1.684;2023-04-24T01:15:51;7.35;;;3.60;;
52574;SDS011;38468;48.114;-1.684;2023-04-24T01:17:52;10.75;;;4.25;;
52574;SDS011;38468;48.114;-1.684;2023-04-24T01:19:52;5.72;;;3.60;;
52574;SDS011;38468;48.114;-1.684;2023-04-24T01:21:53;9.55;;;3.97;;
52574;SDS011;38468;48.114;-1.684;2023-04-24T01:23:57;6.97;;;3.95;;
52574;SDS011;38468;48.114;-1.684;2023-04-24T01:25:57;9.75;;;4.75;;
52574;SDS011;38468;48.114;-1.684;2023-04-24T01:27:58;7.07;;;3.92;;
52574;SDS011;38468;48.114;-1.684;2023-04-24T01:29:59;7.13;;;3.40;;
52574;SDS011;38468;48.114;-1.684;2023-04-24T01:32:00;9.65;;;4.22;;
52574;SDS011;38468;48.114;-1.684;2023-04-24T01:34:01;8.65;;;3.85;;
52574;SDS011;38468;48.114;-1.684;2023-04-24T01:36:02;9.27;;;3.60;;
52574;SDS011;38468;48.114;-1.684;2023-04-24T01:38:03;8.85;;;3.95;;
52574;SDS011;38468;48.114;-1.684;2023-04-24T01:40:06;8.65;;;3.97;;
52574;SDS011;38468;48.114;-1.684;2023-04-24T01:42:07;9.20;;;4.78;;
52574;SDS011;38468;48.114;-1.684;2023-04-24T01:44:08;7.93;;;4.05;;
52574;SDS011;38468;48.114;-1.684;2023-04-24T01:46:09;11.63;;;4.30;;
52574;SDS011;38468;48.114;-1.684;2023-04-24T01:48:11;14.38;;;3.92;;
52574;SDS011;38468;48.114;-1.684;2023-04-24T01:52:13;7.82;;;3.63;;
52574;SDS011;38468;48.114;-1.684;2023-04-24T01:54:13;9.52;;;3.70;;
52574;SDS011;38468;48.114;-1.684;2023-04-24T01:56:14;7.47;;;4.07;;
52574;SDS011;38468;48.114;-1.684;2023-04-24T01:58:15;6.95;;;4.03;;
52574;SDS011;38468;48.114;-1.684;2023-04-24T02:00:16;6.20;;;4.22;;
52574;SDS011;38468;48.114;-1.684;2023-04-24T02:02:16;6.30;;;3.55;;
52574;SDS011;38468;48.114;-1.684;2023-04-24T02:04:17;10.20;;;4.55;;
52574;SDS011;38468;48.114;-1.684;2023-04-24T02:06:18;8.20;;;3.63;;
52574;SDS011;38468;48.114;-1.684;2023-04-24T02:08:18;8.77;;;3.65;;
52574;SDS011;38468;48.114;-1.684;2023-04-24T02:10:19;10.68;;;4.03;;
52574;SDS011;38468;48.114;-1.684;2023-04-24T02:12:20;4.88;;;3.30;;
52574;SDS011;38468;48.114;-1.684;2023-04-24T02:14:20;8.07;;;3.53;;
52574;SDS011;38468;48.114;-1.684;2023-04-24T02:16:21;5.85;;;2.88;;
52574;SDS011;38468;48.114;-1.684;2023-04-24T02:18:22;6.70;;;3.22;;
52574;SDS011;38468;48.114;-1.684;2023-04-24T02:20:22;6.35;;;4.00;;
52574;SDS011;38468;48.114;-1.684;2023-04-24T02:22:23;3.80;;;3.30;;
52574;SDS011;38468;48.114;-1.684;2023-04-24T02:24:24;6.53;;;3.30;;
52574;SDS011;38468;48.114;-1.684;2023-04-24T02:26:25;10.68;;;3.28;;
52574;SDS011;38468;48.114;-1.684;2023-04-24T02:28:26;5.38;;;3.05;;
52574;SDS011;38468;48.114;-1.684;2023-04-24T02:30:26;3.75;;;3.05;;
52574;SDS011;38468;48.114;-1.684;2023-04-24T02:32:27;10.45;;;3.42;;
52574;SDS011;38468;48.114;-1.684;2023-04-24T02:34:27;4.70;;;3.60;;
52574;SDS011;38468;48.114;-1.684;2023-04-24T02:36:28;4.40;;;3.00;;
52574;SDS011;38468;48.114;-1.684;2023-04-24T02:38:30;9.90;;;3.85;;
52574;SDS011;38468;48.114;-1.684;2023-04-24T02:40:30;8.50;;;3.40;;
52574;SDS011;38468;48.114;-1.684;2023-04-24T02:42:32;8.38;;;3.33;;
52574;SDS011;38468;48.114;-1.684;2023-04-24T02:44:32;7.47;;;3.85;;
52574;SDS011;38468;48.114;-1.684;2023-04-24T02:46:33;8.57;;;3.15;;
52574;SDS011;38468;48.114;-1.684;2023-04-24T02:48:34;11.27;;;3.35;;
52574;SDS011;38468;48.114;-1.684;2023-04-24T02:50:34;11.77;;;3.63;;
52574;SDS011;38468;48.114;-1.684;2023-04-24T02:52:35;12.68;;;4.05;;
52574;SDS011;38468;48.114;-1.684;2023-04-24T02:54:36;3.60;;;2.60;;
52574;SDS011;38468;48.114;-1.684;2023-04-24T02:56:36;8.25;;;4.18;;
52574;SDS011;38468;48.114;-1.684;2023-04-24T02:58:37;7.43;;;3.05;;
52574;SDS011;38468;48.114;-1.684;2023-04-24T03:00:38;8.98;;;3.40;;
52574;SDS011;38468;48.114;-1.684;2023-04-24T03:02:39;6.22;;;3.25;;
52574;SDS011;38468;48.114;-1.684;2023-04-24T03:04:40;5.55;;;2.85;;
52574;SDS011;38468;48.114;-1.684;2023-04-24T03:06:42;6.32;;;3.13;;
52574;SDS011;38468;48.114;-1.684;2023-04-24T03:08:43;4.35;;;3.30;;
52574;SDS011;38468;48.114;-1.684;2023-04-24T03:10:44;8.55;;;4.00;;
52574;SDS011;38468;48.114;-1.684;2023-04-24T03:12:44;4.85;;;3.40;;
52574;SDS011;38468;48.114;-1.684;2023-04-24T03:14:45;8.02;;;3.70;;
52574;SDS011;38468;48.114;-1.684;2023-04-24T03:16:45;8.18;;;3.22;;
52574;SDS011;38468;48.114;-1.684;2023-04-24T03:18:46;5.82;;;2.97;;
52574;SDS011;38468;48.114;-1.684;2023-04-24T03:20:47;6.68;;;2.90;;
52574;SDS011;38468;48.114;-1.684;2023-04-24T03:22:47;8.73;;;3.70;;
52574;SDS011;38468;48.114;-1.684;2023-04-24T03:24:48;5.70;;;3.22;;
52574;SDS011;38468;48.114;-1.684;2023-04-24T03:26:49;6.45;;;3.63;;
52574;SDS011;38468;48.114;-1.684;2023-04-24T03:28:49;11.55;;;4.50;;
52574;SDS011;38468;48.114;-1.684;2023-04-24T03:30:50;10.10;;;3.70;;
52574;SDS011;38468;48.114;-1.684;2023-04-24T03:32:56;8.27;;;3.53;;
52574;SDS011;38468;48.114;-1.684;2023-04-24T03:34:56;7.28;;;3.13;;
52574;SDS011;38468;48.114;-1.684;2023-04-24T03:36:57;7.22;;;3.17;;
52574;SDS011;38468;48.114;-1.684;2023-04-24T03:38:58;5.55;;;3.08;;
52574;SDS011;38468;48.114;-1.684;2023-04-24T03:40:59;8.55;;;3.70;;
52574;SDS011;38468;48.114;-1.684;2023-04-24T03:42:59;5.03;;;2.88;;
52574;SDS011;38468;48.114;-1.684;2023-04-24T03:45:00;6.32;;;2.85;;
52574;SDS011;38468;48.114;-1.684;2023-04-24T03:47:06;5.82;;;3.25;;
52574;SDS011;38468;48.114;-1.684;2023-04-24T03:49:06;9.40;;;3.50;;
52574;SDS011;38468;48.114;-1.684;2023-04-24T03:51:07;5.32;;;2.97;;
52574;SDS011;38468;48.114;-1.684;2023-04-24T03:53:08;5.25;;;2.97;;
52574;SDS011;38468;48.114;-1.684;2023-04-24T03:55:08;8.10;;;2.75;;
52574;SDS011;38468;48.114;-1.684;2023-04-24T03:57:13;8.80;;;3.45;;
52574;SDS011;38468;48.114;-1.684;2023-04-24T03:59:13;5.18;;;2.67;;
52574;SDS011;38468;48.114;-1.684;2023-04-24T04:01:14;7.97;;;3.58;;
52574;SDS011;38468;48.114;-1.684;2023-04-24T04:03:16;3.90;;;2.83;;
52574;SDS011;38468;48.114;-1.684;2023-04-24T04:05:16;7.13;;;2.88;;
52574;SDS011;38468;48.114;-1.684;2023-04-24T04:07:17;5.57;;;2.72;;
52574;SDS011;38468;48.114;-1.684;2023-04-24T04:09:18;7.72;;;2.90;;
52574;SDS011;38468;48.114;-1.684;2023-04-24T04:11:18;5.30;;;3.05;;
52574;SDS011;38468;48.114;-1.684;2023-04-24T04:13:19;11.32;;;3.60;;
52574;SDS011;38468;48.114;-1.684;2023-04-24T04:15:20;7.38;;;3.15;;
52574;SDS011;38468;48.114;-1.684;2023-04-24T04:17:21;7.43;;;3.28;;
52574;SDS011;38468;48.114;-1.684;2023-04-24T04:19:21;8.50;;;3.65;;
52574;SDS011;38468;48.114;-1.684;2023-04-24T04:21:22;14.65;;;3.45;;
52574;SDS011;38468;48.114;-1.684;2023-04-24T04:23:23;9.57;;;3.60;;
52574;SDS011;38468;48.114;-1.684;2023-04-24T04:25:23;7.22;;;2.95;;
52574;SDS011;38468;48.114;-1.684;2023-04-24T04:27:24;4.25;;;3.05;;
52574;SDS011;38468;48.114;-1.684;2023-04-24T04:29:26;7.85;;;3.17;;
52574;SDS011;38468;48.114;-1.684;2023-04-24T04:31:27;7.65;;;2.78;;
52574;SDS011;38468;48.114;-1.684;2023-04-24T04:33:27;4.68;;;2.25;;
52574;SDS011;38468;48.114;-1.684;2023-04-24T04:35:28;6.47;;;3.17;;
52574;SDS011;38468;48.114;-1.684;2023-04-24T04:37:29;6.63;;;3.17;;
52574;SDS011;38468;48.114;-1.684;2023-04-24T04:39:31;5.50;;;2.50;;
52574;SDS011;38468;48.114;-1.684;2023-04-24T04:41:31;4.53;;;2.70;;
52574;SDS011;38468;48.114;-1.684;2023-04-24T04:43:35;9.10;;;3.80;;
52574;SDS011;38468;48.114;-1.684;2023-04-24T04:45:36;4.45;;;3.10;;
52574;SDS011;38468;48.114;-1.684;2023-04-24T04:49:39;10.50;;;3.42;;
52574;SDS011;38468;48.114;-1.684;2023-04-24T04:51:41;6.30;;;3.00;;
52574;SDS011;38468;48.114;-1.684;2023-04-24T04:53:41;5.43;;;2.63;;
52574;SDS011;38468;48.114;-1.684;2023-04-24T04:55:42;12.43;;;4.03;;
52574;SDS011;38468;48.114;-1.684;2023-04-24T04:57:42;7.28;;;2.70;;
52574;SDS011;38468;48.114;-1.684;2023-04-24T04:59:43;6.05;;;2.80;;
52574;SDS011;38468;48.114;-1.684;2023-04-24T05:01:44;3.83;;;2.85;;
52574;SDS011;38468;48.114;-1.684;2023-04-24T05:03:45;8.50;;;3.42;;
52574;SDS011;38468;48.114;-1.684;2023-04-24T05:05:46;6.10;;;3.13;;
52574;SDS011;38468;48.114;-1.684;2023-04-24T05:07:46;9.88;;;3.65;;
52574;SDS011;38468;48.114;-1.684;2023-04-24T05:09:47;9.27;;;3.10;;
52574;SDS011;38468;48.114;-1.684;2023-04-24T05:11:47;7.95;;;3.28;;
52574;SDS011;38468;48.114;-1.684;2023-04-24T05:13:48;6.47;;;3.30;;
52574;SDS011;38468;48.114;-1.684;2023-04-24T05:15:49;8.27;;;3.03;;
52574;SDS011;38468;48.114;-1.684;2023-04-24T05:17:50;6.85;;;3.15;;
52574;SDS011;38468;48.114;-1.684;2023-04-24T05:19:50;10.25;;;3.28;;
52574;SDS011;38468;48.114;-1.684;2023-04-24T05:21:51;8.75;;;3.28;;
52574;SDS011;38468;48.114;-1.684;2023-04-24T05:23:52;4.22;;;2.85;;
52574;SDS011;38468;48.114;-1.684;2023-04-24T05:25:52;6.47;;;3.58;;
52574;SDS011;38468;48.114;-1.684;2023-04-24T05:27:53;11.43;;;3.58;;
52574;SDS011;38468;48.114;-1.684;2023-04-24T05:29:54;5.10;;;2.80;;
52574;SDS011;38468;48.114;-1.684;2023-04-24T05:31:54;9.63;;;3.03;;
52574;SDS011;38468;48.114;-1.684;2023-04-24T05:33:55;7.00;;;3.15;;
52574;SDS011;38468;48.114;-1.684;2023-04-24T05:35:56;6.85;;;2.83;;
52574;SDS011;38468;48.114;-1.684;2023-04-24T05:37:56;3.40;;;2.78;;
52574;SDS011;38468;48.114;-1.684;2023-04-24T05:39:57;5.72;;;2.85;;
52574;SDS011;38468;48.114;-1.684;2023-04-24T05:41:58;7.60;;;2.97;;
52574;SDS011;38468;48.114;-1.684;2023-04-24T05:43:59;9.00;;;3.25;;
52574;SDS011;38468;48.114;-1.684;2023-04-24T05:45:59;6.95;;;2.80;;
52574;SDS011;38468;48.114;-1.684;2023-04-24T05:48:05;7.88;;;2.95;;
52574;SDS011;38468;48.114;-1.684;2023-04-24T05:50:06;7.05;;;3.25;;
52574;SDS011;38468;48.114;-1.684;2023-04-24T05:52:07;5.93;;;2.70;;
52574;SDS011;38468;48.114;-1.684;2023-04-24T05:54:08;9.57;;;2.95;;
52574;SDS011;38468;48.114;-1.684;2023-04-24T05:56:12;5.05;;;2.85;;
52574;SDS011;38468;48.114;-1.684;2023-04-24T05:58:12;5.35;;;2.85;;
52574;SDS011;38468;48.114;-1.684;2023-04-24T06:00:13;6.72;;;2.78;;
52574;SDS011;38468;48.114;-1.684;2023-04-24T06:02:14;6.35;;;3.20;;
52574;SDS011;38468;48.114;-1.684;2023-04-24T06:04:14;8.25;;;3.42;;
52574;SDS011;38468;48.114;-1.684;2023-04-24T06:06:15;9.70;;;4.00;;
52574;SDS011;38468;48.114;-1.684;2023-04-24T06:08:16;7.90;;;3.55;;
52574;SDS011;38468;48.114;-1.684;2023-04-24T06:10:17;5.28;;;3.08;;
52574;SDS011;38468;48.114;-1.684;2023-04-24T06:12:18;7.47;;;4.95;;
52574;SDS011;38468;48.114;-1.684;2023-04-24T06:14:18;7.85;;;4.28;;
52574;SDS011;38468;48.114;-1.684;2023-04-24T06:16:19;6.35;;;2.88;;
52574;SDS011;38468;48.114;-1.684;2023-04-24T06:18:20;9.05;;;3.30;;
52574;SDS011;38468;48.114;-1.684;2023-04-24T06:20:21;9.30;;;3.35;;
52574;SDS011;38468;48.114;-1.684;2023-04-24T06:22:21;7.07;;;2.97;;
52574;SDS011;38468;48.114;-1.684;2023-04-24T06:24:22;11.82;;;3.70;;
52574;SDS011;38468;48.114;-1.684;2023-04-24T06:26:27;6.05;;;3.17;;
52574;SDS011;38468;48.114;-1.684;2023-04-24T06:28:28;6.05;;;3.25;;
52574;SDS011;38468;48.114;-1.684;2023-04-24T06:30:28;8.35;;;3.42;;
52574;SDS011;38468;48.114;-1.684;2023-04-24T06:32:29;6.35;;;3.80;;
52574;SDS011;38468;48.114;-1.684;2023-04-24T06:34:30;6.13;;;3.95;;
52574;SDS011;38468;48.114;-1.684;2023-04-24T06:36:32;10.82;;;3.78;;
52574;SDS011;38468;48.114;-1.684;2023-04-24T06:38:35;5.63;;;3.05;;
52574;SDS011;38468;48.114;-1.684;2023-04-24T06:40:36;4.32;;;3.13;;
52574;SDS011;38468;48.114;-1.684;2023-04-24T06:42:37;10.40;;;3.63;;
52574;SDS011;38468;48.114;-1.684;2023-04-24T06:44:38;8.80;;;3.38;;
52574;SDS011;38468;48.114;-1.684;2023-04-24T06:46:41;9.65;;;3.97;;
52574;SDS011;38468;48.114;-1.684;2023-04-24T06:48:41;5.63;;;3.35;;
52574;SDS011;38468;48.114;-1.684;2023-04-24T06:50:42;8.02;;;2.65;;
52574;SDS011;38468;48.114;-1.684;2023-04-24T06:52:43;9.00;;;3.20;;
52574;SDS011;38468;48.114;-1.684;2023-04-24T06:54:44;5.88;;;2.92;;
52574;SDS011;38468;48.114;-1.684;2023-04-24T06:56:44;8.95;;;3.55;;
52574;SDS011;38468;48.114;-1.684;2023-04-24T06:58:47;5.72;;;3.25;;
52574;SDS011;38468;48.114;-1.684;2023-04-24T07:00:48;5.43;;;3.38;;
52574;SDS011;38468;48.114;-1.684;2023-04-24T07:02:49;6.85;;;3.63;;
52574;SDS011;38468;48.114;-1.684;2023-04-24T07:04:50;5.15;;;2.95;;
52574;SDS011;38468;48.114;-1.684;2023-04-24T07:06:50;4.65;;;3.15;;
52574;SDS011;38468;48.114;-1.684;2023-04-24T07:08:51;4.78;;;2.60;;
52574;SDS011;38468;48.114;-1.684;2023-04-24T07:10:52;5.30;;;3.15;;
52574;SDS011;38468;48.114;-1.684;2023-04-24T07:12:53;9.57;;;3.95;;
52574;SDS011;38468;48.114;-1.684;2023-04-24T07:14:54;6.78;;;4.45;;
52574;SDS011;38468;48.114;-1.684;2023-04-24T07:16:55;4.78;;;2.83;;
52574;SDS011;38468;48.114;-1.684;2023-04-24T07:18:57;11.73;;;3.22;;
52574;SDS011;38468;48.114;-1.684;2023-04-24T07:20:57;8.02;;;2.80;;
52574;SDS011;38468;48.114;-1.684;2023-04-24T07:22:58;9.88;;;3.15;;
52574;SDS011;38468;48.114;-1.684;2023-04-24T07:24:58;4.65;;;3.22;;
52574;SDS011;38468;48.114;-1.684;2023-04-24T07:26:59;4.75;;;2.60;;
52574;SDS011;38468;48.114;-1.684;2023-04-24T07:29:01;5.55;;;2.70;;
52574;SDS011;38468;48.114;-1.684;2023-04-24T07:31:01;4.53;;;3.38;;
52574;SDS011;38468;48.114;-1.684;2023-04-24T07:33:02;3.28;;;2.70;;
52574;SDS011;38468;48.114;-1.684;2023-04-24T07:35:03;4.15;;;2.60;;
52574;SDS011;38468;48.114;-1.684;2023-04-24T07:37:04;6.07;;;2.80;;
52574;SDS011;38468;48.114;-1.684;2023-04-24T07:39:04;4.03;;;2.75;;
52574;SDS011;38468;48.114;-1.684;2023-04-24T07:41:05;4.80;;;3.03;;
52574;SDS011;38468;48.114;-1.684;2023-04-24T07:43:06;5.72;;;3.20;;
52574;SDS011;38468;48.114;-1.684;2023-04-24T07:45:07;3.78;;;2.70;;
52574;SDS011;38468;48.114;-1.684;2023-04-24T07:47:08;4.90;;;2.30;;
52574;SDS011;38468;48.114;-1.684;2023-04-24T07:49:08;4.28;;;2.65;;
52574;SDS011;38468;48.114;-1.684;2023-04-24T07:51:09;6.95;;;2.50;;
52574;SDS011;38468;48.114;-1.684;2023-04-24T07:53:13;7.10;;;3.13;;
52574;SDS011;38468;48.114;-1.684;2023-04-24T07:55:13;4.72;;;3.03;;
52574;SDS011;38468;48.114;-1.684;2023-04-24T07:57:14;3.92;;;2.40;;
52574;SDS011;38468;48.114;-1.684;2023-04-24T07:59:15;4.20;;;2.65;;
52574;SDS011;38468;48.114;-1.684;2023-04-24T08:01:16;4.10;;;2.50;;
52574;SDS011;38468;48.114;-1.684;2023-04-24T08:03:16;5.22;;;2.50;;
52574;SDS011;38468;48.114;-1.684;2023-04-24T08:05:19;3.55;;;2.83;;
52574;SDS011;38468;48.114;-1.684;2023-04-24T08:07:20;4.10;;;2.78;;
52574;SDS011;38468;48.114;-1.684;2023-04-24T08:09:21;4.90;;;2.80;;
52574;SDS011;38468;48.114;-1.684;2023-04-24T08:11:21;5.07;;;2.65;;
52574;SDS011;38468;48.114;-1.684;2023-04-24T08:13:22;5.45;;;2.90;;
52574;SDS011;38468;48.114;-1.684;2023-04-24T08:15:23;4.93;;;2.67;;
52574;SDS011;38468;48.114;-1.684;2023-04-24T08:17:23;2.90;;;2.70;;
52574;SDS011;38468;48.114;-1.684;2023-04-24T08:19:24;2.92;;;2.45;;
52574;SDS011;38468;48.114;-1.684;2023-04-24T08:21:25;6.80;;;2.65;;
52574;SDS011;38468;48.114;-1.684;2023-04-24T08:23:27;4.30;;;2.95;;
52574;SDS011;38468;48.114;-1.684;2023-04-24T08:25:28;6.40;;;2.25;;
52574;SDS011;38468;48.114;-1.684;2023-04-24T08:27:29;5.82;;;2.17;;
52574;SDS011;38468;48.114;-1.684;2023-04-24T08:29:30;2.60;;;2.40;;
52574;SDS011;38468;48.114;-1.684;2023-04-24T08:31:30;5.25;;;3.33;;
52574;SDS011;38468;48.114;-1.684;2023-04-24T08:33:31;6.38;;;2.83;;
52574;SDS011;38468;48.114;-1.684;2023-04-24T08:35:34;3.70;;;2.85;;
52574;SDS011;38468;48.114;-1.684;2023-04-24T08:37:35;5.53;;;2.63;;
52574;SDS011;38468;48.114;-1.684;2023-04-24T08:39:36;5.05;;;2.40;;
52574;SDS011;38468;48.114;-1.684;2023-04-24T08:41:37;3.58;;;2.38;;
52574;SDS011;38468;48.114;-1.684;2023-04-24T08:43:38;4.85;;;2.58;;
52574;SDS011;38468;48.114;-1.684;2023-04-24T08:45:39;4.38;;;2.15;;
52574;SDS011;38468;48.114;-1.684;2023-04-24T08:47:40;3.33;;;2.20;;
52574;SDS011;38468;48.114;-1.684;2023-04-24T08:49:41;4.95;;;2.95;;
52574;SDS011;38468;48.114;-1.684;2023-04-24T08:53:45;3.85;;;2.70;;
52574;SDS011;38468;48.114;-1.684;2023-04-24T08:55:47;4.60;;;2.40;;
52574;SDS011;38468;48.114;-1.684;2023-04-24T08:59:50;2.47;;;1.90;;
52574;SDS011;38468;48.114;-1.684;2023-04-24T09:01:52;3.45;;;1.80;;
52574;SDS011;38468;48.114;-1.684;2023-04-24T09:03:54;2.75;;;1.52;;
52574;SDS011;38468;48.114;-1.684;2023-04-24T09:05:56;6.15;;;2.58;;
52574;SDS011;38468;48.114;-1.684;2023-04-24T09:07:58;2.28;;;2.00;;
52574;SDS011;38468;48.114;-1.684;2023-04-24T09:10:02;6.82;;;2.28;;
52574;SDS011;38468;48.114;-1.684;2023-04-24T09:12:03;7.65;;;2.58;;
52574;SDS011;38468;48.114;-1.684;2023-04-24T09:14:04;6.93;;;2.08;;
52574;SDS011;38468;48.114;-1.684;2023-04-24T09:16:05;2.58;;;1.85;;
52574;SDS011;38468;48.114;-1.684;2023-04-24T09:18:06;2.83;;;1.92;;
52574;SDS011;38468;48.114;-1.684;2023-04-24T09:20:07;3.45;;;2.00;;
52574;SDS011;38468;48.114;-1.684;2023-04-24T09:22:09;2.28;;;2.08;;
52574;SDS011;38468;48.114;-1.684;2023-04-24T09:24:15;5.82;;;2.55;;
52574;SDS011;38468;48.114;-1.684;2023-04-24T09:26:20;2.10;;;1.90;;
52574;SDS011;38468;48.114;-1.684;2023-04-24T09:28:33;5.95;;;2.40;;
52574;SDS011;38468;48.114;-1.684;2023-04-24T09:30:36;4.50;;;2.20;;
52574;SDS011;38468;48.114;-1.684;2023-04-24T09:32:36;5.07;;;2.30;;
52574;SDS011;38468;48.114;-1.684;2023-04-24T09:34:37;4.50;;;2.10;;
52574;SDS011;38468;48.114;-1.684;2023-04-24T09:36:39;4.25;;;2.47;;
52574;SDS011;38468;48.114;-1.684;2023-04-24T09:38:41;7.25;;;1.98;;
52574;SDS011;38468;48.114;-1.684;2023-04-24T09:40:42;7.38;;;2.90;;
52574;SDS011;38468;48.114;-1.684;2023-04-24T09:42:43;3.47;;;2.05;;
52574;SDS011;38468;48.114;-1.684;2023-04-24T09:44:45;7.43;;;2.40;;
52574;SDS011;38468;48.114;-1.684;2023-04-24T09:46:55;3.03;;;2.30;;
52574;SDS011;38468;48.114;-1.684;2023-04-24T09:48:57;3.20;;;2.20;;
52574;SDS011;38468;48.114;-1.684;2023-04-24T09:50:57;4.43;;;2.38;;
52574;SDS011;38468;48.114;-1.684;2023-04-24T09:53:01;6.78;;;2.60;;
52574;SDS011;38468;48.114;-1.684;2023-04-24T09:55:09;7.80;;;3.00;;
52574;SDS011;38468;48.114;-1.684;2023-04-24T09:59:17;4.55;;;2.70;;
52574;SDS011;38468;48.114;-1.684;2023-04-24T10:01:31;6.82;;;2.55;;
52574;SDS011;38468;48.114;-1.684;2023-04-24T10:03:33;8.30;;;2.85;;
52574;SDS011;38468;48.114;-1.684;2023-04-24T10:05:35;9.20;;;2.65;;
52574;SDS011;38468;48.114;-1.684;2023-04-24T10:07:39;4.95;;;2.17;;
52574;SDS011;38468;48.114;-1.684;2023-04-24T10:09:40;5.28;;;2.28;;
52574;SDS011;38468;48.114;-1.684;2023-04-24T10:11:42;7.13;;;2.30;;
52574;SDS011;38468;48.114;-1.684;2023-04-24T10:13:46;6.78;;;2.92;;
52574;SDS011;38468;48.114;-1.684;2023-04-24T10:15:47;6.60;;;2.63;;
52574;SDS011;38468;48.114;-1.684;2023-04-24T10:19:54;7.03;;;2.47;;
52574;SDS011;38468;48.114;-1.684;2023-04-24T10:21:55;5.63;;;2.65;;
52574;SDS011;38468;48.114;-1.684;2023-04-24T10:23:57;4.70;;;2.38;;
52574;SDS011;38468;48.114;-1.684;2023-04-24T10:25:59;7.47;;;2.15;;
52574;SDS011;38468;48.114;-1.684;2023-04-24T10:28:01;3.08;;;2.03;;
52574;SDS011;38468;48.114;-1.684;2023-04-24T10:30:02;7.90;;;2.88;;
52574;SDS011;38468;48.114;-1.684;2023-04-24T10:32:04;5.78;;;2.55;;
52574;SDS011;38468;48.114;-1.684;2023-04-24T10:34:07;6.72;;;2.45;;
52574;SDS011;38468;48.114;-1.684;2023-04-24T10:36:09;3.65;;;2.55;;
52574;SDS011;38468;48.114;-1.684;2023-04-24T10:38:12;8.10;;;2.47;;
52574;SDS011;38468;48.114;-1.684;2023-04-24T10:40:17;5.80;;;2.30;;
52574;SDS011;38468;48.114;-1.684;2023-04-24T10:42:19;5.70;;;2.55;;
52574;SDS011;38468;48.114;-1.684;2023-04-24T10:44:20;7.47;;;2.60;;
52574;SDS011;38468;48.114;-1.684;2023-04-24T10:46:22;11.45;;;2.92;;
52574;SDS011;38468;48.114;-1.684;2023-04-24T10:48:28;10.00;;;3.55;;
52574;SDS011;38468;48.114;-1.684;2023-04-24T10:50:30;10.10;;;3.90;;
52574;SDS011;38468;48.114;-1.684;2023-04-24T10:52:51;9.20;;;3.35;;
52574;SDS011;38468;48.114;-1.684;2023-04-24T10:54:54;6.97;;;3.35;;
52574;SDS011;38468;48.114;-1.684;2023-04-24T10:59:34;7.97;;;2.28;;
52574;SDS011;38468;48.114;-1.684;2023-04-24T11:01:37;5.97;;;3.72;;
52574;SDS011;38468;48.114;-1.684;2023-04-24T11:03:38;9.53;;;2.87;;
52574;SDS011;38468;48.114;-1.684;2023-04-24T11:08:11;6.88;;;3.28;;
52574;SDS011;38468;48.114;-1.684;2023-04-24T11:10:24;6.20;;;3.67;;
52574;SDS011;38468;48.114;-1.684;2023-04-24T11:12:26;4.78;;;2.30;;
52574;SDS011;38468;48.114;-1.684;2023-04-24T11:14:27;4.55;;;2.45;;
52574;SDS011;38468;48.114;-1.684;2023-04-24T11:18:44;6.10;;;2.25;;
52574;SDS011;38468;48.114;-1.684;2023-04-24T11:20:45;8.30;;;2.80;;
52574;SDS011;38468;48.114;-1.684;2023-04-24T11:22:46;6.50;;;3.58;;
52574;SDS011;38468;48.114;-1.684;2023-04-24T11:26:54;4.45;;;2.50;;
52574;SDS011;38468;48.114;-1.684;2023-04-24T11:29:05;7.57;;;2.85;;
52574;SDS011;38468;48.114;-1.684;2023-04-24T11:33:37;7.80;;;2.50;;
52574;SDS011;38468;48.114;-1.684;2023-04-24T11:35:40;7.60;;;3.25;;
52574;SDS011;38468;48.114;-1.684;2023-04-24T11:37:45;7.65;;;2.65;;
52574;SDS011;38468;48.114;-1.684;2023-04-24T11:39:49;5.95;;;2.75;;
52574;SDS011;38468;48.114;-1.684;2023-04-24T11:41:51;5.45;;;2.70;;
52574;SDS011;38468;48.114;-1.684;2023-04-24T11:43:52;7.78;;;2.78;;
52574;SDS011;38468;48.114;-1.684;2023-04-24T11:45:55;6.35;;;2.92;;
52574;SDS011;38468;48.114;-1.684;2023-04-24T11:48:00;6.40;;;2.60;;
52574;SDS011;38468;48.114;-1.684;2023-04-24T11:50:03;6.50;;;2.38;;
52574;SDS011;38468;48.114;-1.684;2023-04-24T11:52:05;8.07;;;2.60;;
52574;SDS011;38468;48.114;-1.684;2023-04-24T11:54:07;7.18;;;2.97;;
52574;SDS011;38468;48.114;-1.684;2023-04-24T11:56:11;3.87;;;2.17;;
52574;SDS011;38468;48.114;-1.684;2023-04-24T11:58:11;8.15;;;2.30;;
52574;SDS011;38468;48.114;-1.684;2023-04-24T12:00:16;3.30;;;1.83;;
52574;SDS011;38468;48.114;-1.684;2023-04-24T12:02:22;6.25;;;2.35;;
52574;SDS011;38468;48.114;-1.684;2023-04-24T12:04:27;6.63;;;2.45;;
52574;SDS011;38468;48.114;-1.684;2023-04-24T12:06:59;6.13;;;2.30;;
52574;SDS011;38468;48.114;-1.684;2023-04-24T12:09:04;6.28;;;2.38;;
52574;SDS011;38468;48.114;-1.684;2023-04-24T12:11:06;10.68;;;2.63;;
52574;SDS011;38468;48.114;-1.684;2023-04-24T12:13:09;6.13;;;2.57;;
52574;SDS011;38468;48.114;-1.684;2023-04-24T12:15:11;6.20;;;2.30;;
52574;SDS011;38468;48.114;-1.684;2023-04-24T12:17:12;7.22;;;2.83;;
52574;SDS011;38468;48.114;-1.684;2023-04-24T12:19:17;2.90;;;2.10;;
52574;SDS011;38468;48.114;-1.684;2023-04-24T12:21:21;9.20;;;3.47;;
52574;SDS011;38468;48.114;-1.684;2023-04-24T12:23:34;6.15;;;2.67;;
52574;SDS011;38468;48.114;-1.684;2023-04-24T12:25:35;7.00;;;2.10;;
52574;SDS011;38468;48.114;-1.684;2023-04-24T12:27:36;4.30;;;1.88;;